sensor_id;sensor_type;location;lat;lon;timestamp;P1;durP1;ratioP1;P2;durP2;ratioP2
62024;SDS011;47978;49.118;12.146;2022-07-22T00:00:04;19.27;;;13.57;;
62024;SDS011;47978;49.118;12.146;2022-07-22T00:02:32;17.08;;;13.02;;
62024;SDS011;47978;49.118;12.146;2022-07-22T00:04:59;14.20;;;12.55;;
62024;SDS011;47978;49.118;12.146;2022-07-22T00:07:27;14.70;;;13.13;;
62024;SDS011;47978;49.118;12.146;2022-07-22T00:09:53;15.70;;;12.70;;
62024;SDS011;47978;49.118;12.146;2022-07-22T00:12:20;13.20;;;11.82;;
62024;SDS011;47978;49.118;12.146;2022-07-22T00:14:47;17.25;;;13.55;;
62024;SDS011;47978;49.118;12.146;2022-07-22T00:17:13;16.08;;;13.65;;
62024;SDS011;47978;49.118;12.146;2022-07-22T00:19:40;13.88;;;12.38;;
62024;SDS011;47978;49.118;12.146;2022-07-22T00:22:07;18.77;;;13.30;;
62024;SDS011;47978;49.118;12.146;2022-07-22T00:24:35;14.10;;;12.43;;
62024;SDS011;47978;49.118;12.146;2022-07-22T00:27:02;14.52;;;13.02;;
62024;SDS011;47978;49.118;12.146;2022-07-22T00:29:28;15.50;;;13.52;;
62024;SDS011;47978;49.118;12.146;2022-07-22T00:31:55;15.27;;;13.05;;
62024;SDS011;47978;49.118;12.146;2022-07-22T00:34:21;14.27;;;12.73;;
62024;SDS011;47978;49.118;12.146;2022-07-22T00:36:48;15.63;;;13.43;;
62024;SDS011;47978;49.118;12.146;2022-07-22T00:39:15;16.27;;;13.23;;
62024;SDS011;47978;49.118;12.146;2022-07-22T00:41:43;14.95;;;13.05;;
62024;SDS011;47978;49.118;12.146;2022-07-22T00:44:11;15.88;;;13.43;;
62024;SDS011;47978;49.118;12.146;2022-07-22T00:46:38;15.73;;;12.70;;
62024;SDS011;47978;49.118;12.146;2022-07-22T00:49:05;15.82;;;13.43;;
62024;SDS011;47978;49.118;12.146;2022-07-22T00:51:33;16.45;;;12.98;;
62024;SDS011;47978;49.118;12.146;2022-07-22T00:54:02;14.68;;;12.90;;
62024;SDS011;47978;49.118;12.146;2022-07-22T00:56:29;15.88;;;14.00;;
62024;SDS011;47978;49.118;12.146;2022-07-22T00:58:58;17.33;;;13.18;;
62024;SDS011;47978;49.118;12.146;2022-07-22T01:01:28;14.70;;;13.07;;
62024;SDS011;47978;49.118;12.146;2022-07-22T01:03:55;16.33;;;13.07;;
62024;SDS011;47978;49.118;12.146;2022-07-22T01:06:27;15.10;;;13.50;;
62024;SDS011;47978;49.118;12.146;2022-07-22T01:08:54;16.35;;;12.75;;
62024;SDS011;47978;49.118;12.146;2022-07-22T01:11:22;15.32;;;12.88;;
62024;SDS011;47978;49.118;12.146;2022-07-22T01:13:50;15.80;;;12.70;;
62024;SDS011;47978;49.118;12.146;2022-07-22T01:16:19;14.60;;;12.70;;
62024;SDS011;47978;49.118;12.146;2022-07-22T01:18:46;15.23;;;13.65;;
62024;SDS011;47978;49.118;12.146;2022-07-22T01:21:14;17.92;;;12.80;;
62024;SDS011;47978;49.118;12.146;2022-07-22T01:23:41;15.35;;;13.73;;
62024;SDS011;47978;49.118;12.146;2022-07-22T01:26:09;15.43;;;12.55;;
62024;SDS011;47978;49.118;12.146;2022-07-22T01:28:36;16.10;;;12.48;;
62024;SDS011;47978;49.118;12.146;2022-07-22T01:31:03;13.95;;;12.10;;
62024;SDS011;47978;49.118;12.146;2022-07-22T01:33:30;17.38;;;12.73;;
62024;SDS011;47978;49.118;12.146;2022-07-22T01:35:56;15.93;;;12.88;;
62024;SDS011;47978;49.118;12.146;2022-07-22T01:38:24;15.98;;;11.80;;
62024;SDS011;47978;49.118;12.146;2022-07-22T01:40:51;16.95;;;12.27;;
62024;SDS011;47978;49.118;12.146;2022-07-22T01:43:18;16.33;;;12.20;;
62024;SDS011;47978;49.118;12.146;2022-07-22T01:45:45;15.38;;;12.70;;
62024;SDS011;47978;49.118;12.146;2022-07-22T01:48:12;18.20;;;12.85;;
62024;SDS011;47978;49.118;12.146;2022-07-22T01:50:40;14.75;;;12.65;;
62024;SDS011;47978;49.118;12.146;2022-07-22T01:53:07;15.57;;;12.50;;
62024;SDS011;47978;49.118;12.146;2022-07-22T01:55:36;14.85;;;12.65;;
62024;SDS011;47978;49.118;12.146;2022-07-22T01:58:03;15.70;;;13.80;;
62024;SDS011;47978;49.118;12.146;2022-07-22T02:00:30;15.05;;;13.27;;
62024;SDS011;47978;49.118;12.146;2022-07-22T02:02:57;15.23;;;13.07;;
62024;SDS011;47978;49.118;12.146;2022-07-22T02:05:24;15.30;;;12.85;;
62024;SDS011;47978;49.118;12.146;2022-07-22T02:07:50;14.77;;;13.18;;
62024;SDS011;47978;49.118;12.146;2022-07-22T02:10:17;16.75;;;13.63;;
62024;SDS011;47978;49.118;12.146;2022-07-22T02:12:45;17.63;;;13.40;;
62024;SDS011;47978;49.118;12.146;2022-07-22T02:15:12;15.63;;;13.25;;
62024;SDS011;47978;49.118;12.146;2022-07-22T02:17:38;14.60;;;13.10;;
62024;SDS011;47978;49.118;12.146;2022-07-22T02:20:05;17.95;;;13.50;;
62024;SDS011;47978;49.118;12.146;2022-07-22T02:22:33;16.77;;;13.38;;
62024;SDS011;47978;49.118;12.146;2022-07-22T02:24:59;14.45;;;12.38;;
62024;SDS011;47978;49.118;12.146;2022-07-22T02:27:26;15.10;;;12.60;;
62024;SDS011;47978;49.118;12.146;2022-07-22T02:29:54;14.15;;;12.63;;
62024;SDS011;47978;49.118;12.146;2022-07-22T02:32:20;15.00;;;12.15;;
62024;SDS011;47978;49.118;12.146;2022-07-22T02:34:48;14.93;;;12.77;;
62024;SDS011;47978;49.118;12.146;2022-07-22T02:37:14;16.60;;;13.35;;
62024;SDS011;47978;49.118;12.146;2022-07-22T02:39:42;16.60;;;12.48;;
62024;SDS011;47978;49.118;12.146;2022-07-22T02:42:09;14.55;;;11.07;;
62024;SDS011;47978;49.118;12.146;2022-07-22T02:44:36;17.83;;;12.73;;
62024;SDS011;47978;49.118;12.146;2022-07-22T02:47:04;12.90;;;11.55;;
62024;SDS011;47978;49.118;12.146;2022-07-22T02:49:30;14.07;;;12.57;;
62024;SDS011;47978;49.118;12.146;2022-07-22T02:51:57;14.25;;;11.75;;
62024;SDS011;47978;49.118;12.146;2022-07-22T02:54:23;13.63;;;11.77;;
62024;SDS011;47978;49.118;12.146;2022-07-22T02:56:50;14.70;;;11.95;;
62024;SDS011;47978;49.118;12.146;2022-07-22T02:59:17;14.25;;;12.63;;
62024;SDS011;47978;49.118;12.146;2022-07-22T03:01:43;17.70;;;13.18;;
62024;SDS011;47978;49.118;12.146;2022-07-22T03:04:11;14.70;;;12.30;;
62024;SDS011;47978;49.118;12.146;2022-07-22T03:06:38;13.00;;;11.70;;
62024;SDS011;47978;49.118;12.146;2022-07-22T03:09:05;16.35;;;12.32;;
62024;SDS011;47978;49.118;12.146;2022-07-22T03:11:31;15.82;;;12.90;;
62024;SDS011;47978;49.118;12.146;2022-07-22T03:13:58;16.42;;;13.10;;
62024;SDS011;47978;49.118;12.146;2022-07-22T03:16:25;15.95;;;12.88;;
62024;SDS011;47978;49.118;12.146;2022-07-22T03:18:51;16.95;;;12.48;;
62024;SDS011;47978;49.118;12.146;2022-07-22T03:21:20;14.63;;;13.05;;
62024;SDS011;47978;49.118;12.146;2022-07-22T03:23:46;16.55;;;13.00;;
62024;SDS011;47978;49.118;12.146;2022-07-22T03:26:13;19.67;;;13.20;;
62024;SDS011;47978;49.118;12.146;2022-07-22T03:28:40;16.60;;;13.57;;
62024;SDS011;47978;49.118;12.146;2022-07-22T03:31:07;15.40;;;13.18;;
62024;SDS011;47978;49.118;12.146;2022-07-22T03:33:33;15.65;;;12.88;;
62024;SDS011;47978;49.118;12.146;2022-07-22T03:36:00;17.88;;;12.27;;
62024;SDS011;47978;49.118;12.146;2022-07-22T03:38:28;13.80;;;12.13;;
62024;SDS011;47978;49.118;12.146;2022-07-22T03:40:54;14.00;;;12.45;;
62024;SDS011;47978;49.118;12.146;2022-07-22T03:43:21;18.70;;;12.98;;
62024;SDS011;47978;49.118;12.146;2022-07-22T03:45:47;13.68;;;12.23;;
62024;SDS011;47978;49.118;12.146;2022-07-22T03:48:14;14.40;;;12.45;;
62024;SDS011;47978;49.118;12.146;2022-07-22T03:50:41;14.30;;;12.90;;
62024;SDS011;47978;49.118;12.146;2022-07-22T03:53:07;12.63;;;11.32;;
62024;SDS011;47978;49.118;12.146;2022-07-22T03:55:36;13.23;;;11.82;;
62024;SDS011;47978;49.118;12.146;2022-07-22T03:58:03;14.52;;;11.55;;
62024;SDS011;47978;49.118;12.146;2022-07-22T04:00:29;13.23;;;11.25;;
62024;SDS011;47978;49.118;12.146;2022-07-22T04:02:56;15.18;;;11.88;;
62024;SDS011;47978;49.118;12.146;2022-07-22T04:05:23;14.48;;;12.48;;
62024;SDS011;47978;49.118;12.146;2022-07-22T04:07:49;13.57;;;12.15;;
62024;SDS011;47978;49.118;12.146;2022-07-22T04:10:16;13.85;;;12.15;;
62024;SDS011;47978;49.118;12.146;2022-07-22T04:12:44;15.10;;;12.98;;
62024;SDS011;47978;49.118;12.146;2022-07-22T04:15:10;14.98;;;12.52;;
62024;SDS011;47978;49.118;12.146;2022-07-22T04:17:37;13.45;;;11.85;;
62024;SDS011;47978;49.118;12.146;2022-07-22T04:20:04;14.73;;;12.30;;
62024;SDS011;47978;49.118;12.146;2022-07-22T04:22:31;16.35;;;12.02;;
62024;SDS011;47978;49.118;12.146;2022-07-22T04:24:58;13.65;;;11.45;;
62024;SDS011;47978;49.118;12.146;2022-07-22T04:27:25;14.05;;;12.55;;
62024;SDS011;47978;49.118;12.146;2022-07-22T04:29:53;15.35;;;12.98;;
62024;SDS011;47978;49.118;12.146;2022-07-22T04:32:20;15.07;;;11.43;;
62024;SDS011;47978;49.118;12.146;2022-07-22T04:34:46;13.57;;;12.02;;
62024;SDS011;47978;49.118;12.146;2022-07-22T04:37:13;16.15;;;12.48;;
62024;SDS011;47978;49.118;12.146;2022-07-22T04:39:39;17.00;;;12.43;;
62024;SDS011;47978;49.118;12.146;2022-07-22T04:42:06;15.38;;;11.85;;
62024;SDS011;47978;49.118;12.146;2022-07-22T04:44:33;15.85;;;11.23;;
62024;SDS011;47978;49.118;12.146;2022-07-22T04:47:01;13.65;;;11.80;;
62024;SDS011;47978;49.118;12.146;2022-07-22T04:49:33;15.93;;;12.55;;
62024;SDS011;47978;49.118;12.146;2022-07-22T04:52:00;14.43;;;11.80;;
62024;SDS011;47978;49.118;12.146;2022-07-22T04:54:27;13.82;;;12.00;;
62024;SDS011;47978;49.118;12.146;2022-07-22T04:56:54;13.70;;;12.27;;
62024;SDS011;47978;49.118;12.146;2022-07-22T04:59:21;14.65;;;12.07;;
62024;SDS011;47978;49.118;12.146;2022-07-22T05:01:49;15.93;;;12.13;;
62024;SDS011;47978;49.118;12.146;2022-07-22T05:04:17;14.25;;;12.75;;
62024;SDS011;47978;49.118;12.146;2022-07-22T05:06:44;15.60;;;13.15;;
62024;SDS011;47978;49.118;12.146;2022-07-22T05:09:10;16.98;;;13.30;;
62024;SDS011;47978;49.118;12.146;2022-07-22T05:11:37;14.57;;;13.07;;
62024;SDS011;47978;49.118;12.146;2022-07-22T05:14:03;13.50;;;12.10;;
62024;SDS011;47978;49.118;12.146;2022-07-22T05:16:30;14.38;;;12.88;;
62024;SDS011;47978;49.118;12.146;2022-07-22T05:18:57;13.48;;;12.07;;
62024;SDS011;47978;49.118;12.146;2022-07-22T05:21:26;14.93;;;13.40;;
62024;SDS011;47978;49.118;12.146;2022-07-22T05:23:52;14.70;;;13.20;;
62024;SDS011;47978;49.118;12.146;2022-07-22T05:26:19;12.90;;;11.55;;
62024;SDS011;47978;49.118;12.146;2022-07-22T05:28:46;13.90;;;12.30;;
62024;SDS011;47978;49.118;12.146;2022-07-22T05:31:12;14.05;;;12.65;;
62024;SDS011;47978;49.118;12.146;2022-07-22T05:33:39;12.75;;;11.55;;
62024;SDS011;47978;49.118;12.146;2022-07-22T05:36:06;14.23;;;12.77;;
62024;SDS011;47978;49.118;12.146;2022-07-22T05:38:35;16.00;;;13.07;;
62024;SDS011;47978;49.118;12.146;2022-07-22T05:41:02;15.25;;;13.43;;
62024;SDS011;47978;49.118;12.146;2022-07-22T05:43:28;14.30;;;12.90;;
62024;SDS011;47978;49.118;12.146;2022-07-22T05:45:55;14.00;;;12.27;;
62024;SDS011;47978;49.118;12.146;2022-07-22T05:48:22;15.70;;;13.50;;
62024;SDS011;47978;49.118;12.146;2022-07-22T05:50:48;13.43;;;12.05;;
62024;SDS011;47978;49.118;12.146;2022-07-22T05:53:15;16.52;;;12.15;;
62024;SDS011;47978;49.118;12.146;2022-07-22T05:55:44;15.18;;;13.20;;
62024;SDS011;47978;49.118;12.146;2022-07-22T05:58:10;14.40;;;12.90;;
62024;SDS011;47978;49.118;12.146;2022-07-22T06:00:37;15.20;;;13.68;;
62024;SDS011;47978;49.118;12.146;2022-07-22T06:03:03;14.00;;;12.60;;
62024;SDS011;47978;49.118;12.146;2022-07-22T06:05:30;15.85;;;13.77;;
62024;SDS011;47978;49.118;12.146;2022-07-22T06:08:03;16.02;;;14.45;;
62024;SDS011;47978;49.118;12.146;2022-07-22T06:10:30;14.57;;;13.18;;
62024;SDS011;47978;49.118;12.146;2022-07-22T06:12:59;14.70;;;13.15;;
62024;SDS011;47978;49.118;12.146;2022-07-22T06:15:25;15.55;;;14.05;;
62024;SDS011;47978;49.118;12.146;2022-07-22T06:17:52;18.38;;;16.48;;
62024;SDS011;47978;49.118;12.146;2022-07-22T06:20:19;16.92;;;15.32;;
62024;SDS011;47978;49.118;12.146;2022-07-22T06:22:46;16.50;;;14.93;;
62024;SDS011;47978;49.118;12.146;2022-07-22T06:25:13;16.25;;;14.57;;
62024;SDS011;47978;49.118;12.146;2022-07-22T06:28:01;17.15;;;15.18;;
62024;SDS011;47978;49.118;12.146;2022-07-22T06:30:27;17.38;;;15.60;;
62024;SDS011;47978;49.118;12.146;2022-07-22T06:32:54;16.67;;;15.02;;
62024;SDS011;47978;49.118;12.146;2022-07-22T06:35:22;16.88;;;15.10;;
62024;SDS011;47978;49.118;12.146;2022-07-22T06:37:48;20.95;;;16.98;;
62024;SDS011;47978;49.118;12.146;2022-07-22T06:40:31;19.58;;;17.58;;
62024;SDS011;47978;49.118;12.146;2022-07-22T06:42:58;19.55;;;17.40;;
62024;SDS011;47978;49.118;12.146;2022-07-22T06:45:26;19.17;;;17.27;;
62024;SDS011;47978;49.118;12.146;2022-07-22T06:47:53;20.13;;;17.80;;
62024;SDS011;47978;49.118;12.146;2022-07-22T06:50:20;18.30;;;16.48;;
62024;SDS011;47978;49.118;12.146;2022-07-22T06:52:49;18.65;;;15.95;;
62024;SDS011;47978;49.118;12.146;2022-07-22T06:55:16;17.95;;;16.08;;
62024;SDS011;47978;49.118;12.146;2022-07-22T06:57:42;17.23;;;15.57;;
62024;SDS011;47978;49.118;12.146;2022-07-22T07:00:10;18.60;;;16.45;;
62024;SDS011;47978;49.118;12.146;2022-07-22T07:02:38;19.52;;;17.52;;
62024;SDS011;47978;49.118;12.146;2022-07-22T07:05:05;19.27;;;17.27;;
62024;SDS011;47978;49.118;12.146;2022-07-22T07:07:32;17.92;;;16.02;;
62024;SDS011;47978;49.118;12.146;2022-07-22T07:10:02;18.05;;;16.13;;
62024;SDS011;47978;49.118;12.146;2022-07-22T07:12:34;17.20;;;15.60;;
62024;SDS011;47978;49.118;12.146;2022-07-22T07:15:03;18.73;;;16.95;;
62024;SDS011;47978;49.118;12.146;2022-07-22T07:17:51;18.17;;;16.50;;
62024;SDS011;47978;49.118;12.146;2022-07-22T07:20:18;20.67;;;18.65;;
62024;SDS011;47978;49.118;12.146;2022-07-22T07:22:45;19.25;;;17.30;;
62024;SDS011;47978;49.118;12.146;2022-07-22T07:25:11;19.50;;;17.35;;
62024;SDS011;47978;49.118;12.146;2022-07-22T07:27:49;18.70;;;16.83;;
62024;SDS011;47978;49.118;12.146;2022-07-22T07:30:16;21.08;;;17.85;;
62024;SDS011;47978;49.118;12.146;2022-07-22T07:32:42;20.13;;;18.13;;
62024;SDS011;47978;49.118;12.146;2022-07-22T07:35:10;22.48;;;20.15;;
62024;SDS011;47978;49.118;12.146;2022-07-22T07:37:37;22.60;;;20.10;;
62024;SDS011;47978;49.118;12.146;2022-07-22T07:40:05;21.85;;;19.63;;
62024;SDS011;47978;49.118;12.146;2022-07-22T07:42:33;21.88;;;19.42;;
62024;SDS011;47978;49.118;12.146;2022-07-22T07:45:04;22.38;;;19.85;;
62024;SDS011;47978;49.118;12.146;2022-07-22T07:47:32;22.73;;;18.40;;
62024;SDS011;47978;49.118;12.146;2022-07-22T07:49:58;20.63;;;18.35;;
62024;SDS011;47978;49.118;12.146;2022-07-22T07:52:26;20.95;;;17.48;;
62024;SDS011;47978;49.118;12.146;2022-07-22T07:54:53;26.63;;;19.85;;
62024;SDS011;47978;49.118;12.146;2022-07-22T07:57:37;19.70;;;17.67;;
62024;SDS011;47978;49.118;12.146;2022-07-22T08:00:06;21.17;;;17.10;;
62024;SDS011;47978;49.118;12.146;2022-07-22T08:02:37;21.25;;;18.77;;
62024;SDS011;47978;49.118;12.146;2022-07-22T08:05:05;22.52;;;18.48;;
62024;SDS011;47978;49.118;12.146;2022-07-22T08:07:34;20.15;;;17.88;;
62024;SDS011;47978;49.118;12.146;2022-07-22T08:10:01;26.05;;;18.45;;
62024;SDS011;47978;49.118;12.146;2022-07-22T08:12:48;19.58;;;17.38;;
62024;SDS011;47978;49.118;12.146;2022-07-22T08:15:16;22.90;;;17.40;;
62024;SDS011;47978;49.118;12.146;2022-07-22T08:17:43;18.80;;;16.02;;
62024;SDS011;47978;49.118;12.146;2022-07-22T08:20:09;16.92;;;15.07;;
62024;SDS011;47978;49.118;12.146;2022-07-22T08:22:38;17.60;;;14.88;;
62024;SDS011;47978;49.118;12.146;2022-07-22T08:25:08;18.52;;;14.18;;
62024;SDS011;47978;49.118;12.146;2022-07-22T08:27:35;16.27;;;13.93;;
62024;SDS011;47978;49.118;12.146;2022-07-22T08:30:02;15.30;;;13.80;;
62024;SDS011;47978;49.118;12.146;2022-07-22T08:32:30;15.35;;;13.73;;
62024;SDS011;47978;49.118;12.146;2022-07-22T08:34:57;19.15;;;15.30;;
62024;SDS011;47978;49.118;12.146;2022-07-22T08:37:23;20.50;;;14.82;;
62024;SDS011;47978;49.118;12.146;2022-07-22T08:39:51;18.45;;;13.80;;
62024;SDS011;47978;49.118;12.146;2022-07-22T08:42:18;14.43;;;12.95;;
62024;SDS011;47978;49.118;12.146;2022-07-22T08:44:45;15.93;;;12.55;;
62024;SDS011;47978;49.118;12.146;2022-07-22T08:47:13;13.90;;;11.77;;
62024;SDS011;47978;49.118;12.146;2022-07-22T08:50:00;14.18;;;11.30;;
62024;SDS011;47978;49.118;12.146;2022-07-22T08:52:27;15.38;;;10.13;;
62024;SDS011;47978;49.118;12.146;2022-07-22T08:54:54;10.07;;;8.65;;
62024;SDS011;47978;49.118;12.146;2022-07-22T08:57:21;9.98;;;7.65;;
62024;SDS011;47978;49.118;12.146;2022-07-22T08:59:48;8.52;;;7.68;;
62024;SDS011;47978;49.118;12.146;2022-07-22T09:02:16;8.00;;;6.10;;
62024;SDS011;47978;49.118;12.146;2022-07-22T09:04:52;9.07;;;7.90;;
62024;SDS011;47978;49.118;12.146;2022-07-22T09:07:24;12.50;;;8.25;;
62024;SDS011;47978;49.118;12.146;2022-07-22T09:09:56;11.88;;;9.55;;
62024;SDS011;47978;49.118;12.146;2022-07-22T09:12:24;13.88;;;10.75;;
62024;SDS011;47978;49.118;12.146;2022-07-22T09:14:52;11.32;;;9.68;;
62024;SDS011;47978;49.118;12.146;2022-07-22T09:17:24;14.57;;;8.88;;
62024;SDS011;47978;49.118;12.146;2022-07-22T09:19:52;13.38;;;9.70;;
62024;SDS011;47978;49.118;12.146;2022-07-22T09:22:35;10.98;;;9.80;;
62024;SDS011;47978;49.118;12.146;2022-07-22T09:25:24;10.80;;;9.23;;
62024;SDS011;47978;49.118;12.146;2022-07-22T09:27:54;12.02;;;9.93;;
62024;SDS011;47978;49.118;12.146;2022-07-22T09:30:22;11.75;;;10.55;;
62024;SDS011;47978;49.118;12.146;2022-07-22T09:32:51;11.43;;;9.20;;
62024;SDS011;47978;49.118;12.146;2022-07-22T09:35:19;12.77;;;10.23;;
62024;SDS011;47978;49.118;12.146;2022-07-22T09:37:47;10.93;;;9.82;;
62024;SDS011;47978;49.118;12.146;2022-07-22T09:40:16;12.95;;;10.23;;
62024;SDS011;47978;49.118;12.146;2022-07-22T09:42:47;12.27;;;9.80;;
62024;SDS011;47978;49.118;12.146;2022-07-22T09:45:15;13.18;;;9.98;;
62024;SDS011;47978;49.118;12.146;2022-07-22T09:47:43;13.60;;;9.98;;
62024;SDS011;47978;49.118;12.146;2022-07-22T09:50:17;12.85;;;9.40;;
62024;SDS011;47978;49.118;12.146;2022-07-22T09:52:46;12.70;;;9.52;;
62024;SDS011;47978;49.118;12.146;2022-07-22T09:55:19;14.43;;;9.05;;
62024;SDS011;47978;49.118;12.146;2022-07-22T09:57:49;13.75;;;9.45;;
62024;SDS011;47978;49.118;12.146;2022-07-22T10:00:17;10.15;;;8.93;;
62024;SDS011;47978;49.118;12.146;2022-07-22T10:02:46;10.70;;;9.00;;
62024;SDS011;47978;49.118;12.146;2022-07-22T10:05:14;11.35;;;9.20;;
62024;SDS011;47978;49.118;12.146;2022-07-22T10:07:43;13.70;;;9.02;;
62024;SDS011;47978;49.118;12.146;2022-07-22T10:10:11;11.10;;;8.80;;
62024;SDS011;47978;49.118;12.146;2022-07-22T10:12:40;11.82;;;8.15;;
62024;SDS011;47978;49.118;12.146;2022-07-22T10:15:10;10.57;;;8.77;;
62024;SDS011;47978;49.118;12.146;2022-07-22T10:17:37;11.27;;;9.38;;
62024;SDS011;47978;49.118;12.146;2022-07-22T10:20:05;11.65;;;8.48;;
62024;SDS011;47978;49.118;12.146;2022-07-22T10:22:44;10.48;;;8.75;;
62024;SDS011;47978;49.118;12.146;2022-07-22T10:25:13;9.48;;;8.55;;
62024;SDS011;47978;49.118;12.146;2022-07-22T10:27:43;10.65;;;7.90;;
62024;SDS011;47978;49.118;12.146;2022-07-22T10:30:11;8.48;;;7.57;;
62024;SDS011;47978;49.118;12.146;2022-07-22T10:32:39;10.20;;;8.90;;
62024;SDS011;47978;49.118;12.146;2022-07-22T10:35:22;14.77;;;8.57;;
62024;SDS011;47978;49.118;12.146;2022-07-22T10:37:56;10.10;;;8.45;;
62024;SDS011;47978;49.118;12.146;2022-07-22T10:40:26;11.18;;;8.93;;
62024;SDS011;47978;49.118;12.146;2022-07-22T10:43:09;11.20;;;8.95;;
62024;SDS011;47978;49.118;12.146;2022-07-22T10:45:41;11.50;;;9.93;;
62024;SDS011;47978;49.118;12.146;2022-07-22T10:48:11;11.27;;;8.40;;
62024;SDS011;47978;49.118;12.146;2022-07-22T10:50:46;13.20;;;9.20;;
62024;SDS011;47978;49.118;12.146;2022-07-22T10:53:16;11.75;;;8.25;;
62024;SDS011;47978;49.118;12.146;2022-07-22T10:55:58;10.07;;;9.00;;
62024;SDS011;47978;49.118;12.146;2022-07-22T10:58:43;12.68;;;8.60;;
62024;SDS011;47978;49.118;12.146;2022-07-22T11:01:26;10.10;;;8.30;;
62024;SDS011;47978;49.118;12.146;2022-07-22T11:03:55;11.67;;;9.13;;
62024;SDS011;47978;49.118;12.146;2022-07-22T11:06:32;9.50;;;8.32;;
62024;SDS011;47978;49.118;12.146;2022-07-22T11:09:00;10.88;;;8.85;;
62024;SDS011;47978;49.118;12.146;2022-07-22T11:11:31;11.75;;;8.82;;
62024;SDS011;47978;49.118;12.146;2022-07-22T11:13:59;12.95;;;8.70;;
62024;SDS011;47978;49.118;12.146;2022-07-22T11:16:28;9.52;;;7.68;;
62024;SDS011;47978;49.118;12.146;2022-07-22T11:18:56;12.52;;;7.97;;
62024;SDS011;47978;49.118;12.146;2022-07-22T11:21:24;11.63;;;8.27;;
62024;SDS011;47978;49.118;12.146;2022-07-22T11:23:55;9.18;;;8.13;;
62024;SDS011;47978;49.118;12.146;2022-07-22T11:26:24;11.32;;;9.10;;
62024;SDS011;47978;49.118;12.146;2022-07-22T11:28:57;9.48;;;7.90;;
62024;SDS011;47978;49.118;12.146;2022-07-22T11:31:25;9.93;;;7.95;;
62024;SDS011;47978;49.118;12.146;2022-07-22T11:33:57;8.82;;;7.82;;
62024;SDS011;47978;49.118;12.146;2022-07-22T11:36:31;11.50;;;9.27;;
62024;SDS011;47978;49.118;12.146;2022-07-22T11:38:58;11.18;;;8.57;;
62024;SDS011;47978;49.118;12.146;2022-07-22T11:41:25;11.20;;;7.95;;
62024;SDS011;47978;49.118;12.146;2022-07-22T11:43:55;11.52;;;8.40;;
62024;SDS011;47978;49.118;12.146;2022-07-22T11:46:23;11.68;;;8.75;;
62024;SDS011;47978;49.118;12.146;2022-07-22T11:48:49;8.93;;;7.70;;
62024;SDS011;47978;49.118;12.146;2022-07-22T11:51:17;8.70;;;7.85;;
62024;SDS011;47978;49.118;12.146;2022-07-22T11:53:46;10.45;;;7.72;;
62024;SDS011;47978;49.118;12.146;2022-07-22T11:56:13;7.40;;;6.65;;
62024;SDS011;47978;49.118;12.146;2022-07-22T11:58:41;8.38;;;7.47;;
62024;SDS011;47978;49.118;12.146;2022-07-22T12:01:09;9.98;;;7.22;;
62024;SDS011;47978;49.118;12.146;2022-07-22T12:03:38;9.23;;;7.68;;
62024;SDS011;47978;49.118;12.146;2022-07-22T12:06:07;9.27;;;7.78;;
62024;SDS011;47978;49.118;12.146;2022-07-22T12:08:39;10.82;;;8.18;;
62024;SDS011;47978;49.118;12.146;2022-07-22T12:11:08;9.88;;;7.72;;
62024;SDS011;47978;49.118;12.146;2022-07-22T12:13:35;8.55;;;7.75;;
62024;SDS011;47978;49.118;12.146;2022-07-22T12:16:16;11.48;;;8.35;;
62024;SDS011;47978;49.118;12.146;2022-07-22T12:18:50;9.20;;;8.00;;
62024;SDS011;47978;49.118;12.146;2022-07-22T12:21:19;10.27;;;7.55;;
62024;SDS011;47978;49.118;12.146;2022-07-22T12:23:51;12.25;;;7.90;;
62024;SDS011;47978;49.118;12.146;2022-07-22T12:29:16;9.88;;;7.22;;
62024;SDS011;47978;49.118;12.146;2022-07-22T12:31:45;9.27;;;7.03;;
62024;SDS011;47978;49.118;12.146;2022-07-22T12:34:13;8.93;;;7.40;;
62024;SDS011;47978;49.118;12.146;2022-07-22T12:36:42;10.35;;;7.30;;
62024;SDS011;47978;49.118;12.146;2022-07-22T12:39:13;10.30;;;7.32;;
62024;SDS011;47978;49.118;12.146;2022-07-22T12:41:45;9.27;;;7.13;;
62024;SDS011;47978;49.118;12.146;2022-07-22T12:44:20;8.05;;;6.57;;
62024;SDS011;47978;49.118;12.146;2022-07-22T12:46:49;8.63;;;6.82;;
62024;SDS011;47978;49.118;12.146;2022-07-22T12:49:18;8.68;;;6.60;;
62024;SDS011;47978;49.118;12.146;2022-07-22T12:54:37;7.32;;;6.47;;
62024;SDS011;47978;49.118;12.146;2022-07-22T12:57:05;8.60;;;6.43;;
62024;SDS011;47978;49.118;12.146;2022-07-22T12:59:33;7.63;;;6.78;;
62024;SDS011;47978;49.118;12.146;2022-07-22T13:02:00;7.03;;;6.32;;
62024;SDS011;47978;49.118;12.146;2022-07-22T13:04:27;7.88;;;7.07;;
62024;SDS011;47978;49.118;12.146;2022-07-22T13:06:54;8.25;;;7.07;;
62024;SDS011;47978;49.118;12.146;2022-07-22T13:09:21;8.15;;;7.30;;
62024;SDS011;47978;49.118;12.146;2022-07-22T13:11:51;7.03;;;6.32;;
62024;SDS011;47978;49.118;12.146;2022-07-22T13:14:18;9.95;;;6.68;;
62024;SDS011;47978;49.118;12.146;2022-07-22T13:16:44;7.72;;;6.78;;
62024;SDS011;47978;49.118;12.146;2022-07-22T13:19:11;7.65;;;6.90;;
62024;SDS011;47978;49.118;12.146;2022-07-22T13:21:37;9.10;;;7.20;;
62024;SDS011;47978;49.118;12.146;2022-07-22T13:24:04;8.90;;;6.75;;
62024;SDS011;47978;49.118;12.146;2022-07-22T13:26:31;8.73;;;6.97;;
62024;SDS011;47978;49.118;12.146;2022-07-22T13:28:59;8.10;;;7.03;;
62024;SDS011;47978;49.118;12.146;2022-07-22T13:31:26;8.75;;;7.55;;
62024;SDS011;47978;49.118;12.146;2022-07-22T13:33:53;10.98;;;7.13;;
62024;SDS011;47978;49.118;12.146;2022-07-22T13:36:20;7.93;;;6.38;;
62024;SDS011;47978;49.118;12.146;2022-07-22T13:38:47;10.05;;;7.70;;
62024;SDS011;47978;49.118;12.146;2022-07-22T13:41:15;8.40;;;7.50;;
62024;SDS011;47978;49.118;12.146;2022-07-22T13:43:42;7.75;;;6.82;;
62024;SDS011;47978;49.118;12.146;2022-07-22T13:46:10;7.78;;;6.97;;
62024;SDS011;47978;49.118;12.146;2022-07-22T13:48:37;7.63;;;6.40;;
62024;SDS011;47978;49.118;12.146;2022-07-22T13:51:04;7.72;;;6.65;;
62024;SDS011;47978;49.118;12.146;2022-07-22T13:53:31;10.13;;;6.63;;
62024;SDS011;47978;49.118;12.146;2022-07-22T13:55:58;9.57;;;7.78;;
62024;SDS011;47978;49.118;12.146;2022-07-22T13:58:25;8.68;;;7.28;;
62024;SDS011;47978;49.118;12.146;2022-07-22T14:00:51;9.63;;;7.53;;
62024;SDS011;47978;49.118;12.146;2022-07-22T14:03:19;10.75;;;6.88;;
62024;SDS011;47978;49.118;12.146;2022-07-22T14:05:46;8.48;;;7.35;;
62024;SDS011;47978;49.118;12.146;2022-07-22T14:08:12;8.13;;;6.90;;
62024;SDS011;47978;49.118;12.146;2022-07-22T14:10:39;11.05;;;7.32;;
62024;SDS011;47978;49.118;12.146;2022-07-22T14:13:06;7.40;;;6.60;;
62024;SDS011;47978;49.118;12.146;2022-07-22T14:15:32;10.15;;;6.95;;
62024;SDS011;47978;49.118;12.146;2022-07-22T14:17:59;7.10;;;6.40;;
62024;SDS011;47978;49.118;12.146;2022-07-22T14:20:27;10.43;;;6.95;;
62024;SDS011;47978;49.118;12.146;2022-07-22T14:22:53;7.57;;;6.70;;
62024;SDS011;47978;49.118;12.146;2022-07-22T14:25:20;8.20;;;6.95;;
62024;SDS011;47978;49.118;12.146;2022-07-22T14:27:46;8.63;;;7.05;;